Time;durP1;ratioP1;P1;durP2;ratioP2;P2;SDS_P1;SDS_P2;PMS_P1;PMS_P2;Temp;Humidity;BMP_temperature;BMP_pressure;BME280_temperature;BME280_humidity;BME280_pressure;Samples;Min_cycle;Max_cycle;Signal;HPM_P1;HPM_P2
2023/08/11 00:03:32;;;;;;;1.02;1.02;;;;;;;;;;5028765;28;20229;-85
2023/08/11 00:15:55;;;;;;;0.77;0.77;;;;;;;;;;5026336;28;20245;-89
2023/08/11 00:21:44;;;;;;;1.00;1.00;;;;;;;;;;5014314;28;20313;-86
2023/08/11 00:24:18;;;;;;;1.20;1.20;;;;;;;;;;5030202;28;20292;-87
2023/08/11 00:27:27;;;;;;;0.90;0.90;;;;;;;;;;5025673;28;20624;-88
2023/08/11 00:30:05;;;;;;;3.22;0.88;;;;;;;;;;5032216;28;20781;-86
2023/08/11 00:54:39;;;;;;;1.03;0.93;;;;;;;;;;5049407;28;20217;-88
2023/08/11 00:57:45;;;;;;;1.10;1.00;;;;;;;;;;5044860;28;22196;-86
2023/08/11 01:06:43;;;;;;;1.35;1.35;;;;;;;;;;5065934;28;20744;-87
2023/08/11 01:18:46;;;;;;;1.38;1.27;;;;;;;;;;5047060;28;20240;-88
2023/08/11 01:21:53;;;;;;;1.03;1.03;;;;;;;;;;5044373;28;20924;-87
2023/08/11 01:24:50;;;;;;;1.40;1.30;;;;;;;;;;5037563;28;20229;-87
2023/08/11 01:49:39;;;;;;;1.27;1.27;;;;;;;;;;5027730;28;20225;-86
2023/08/11 01:52:14;;;;;;;1.20;1.10;;;;;;;;;;5028744;28;20228;-86
2023/08/11 01:58:00;;;;;;;1.20;1.20;;;;;;;;;;5026763;28;20623;-87
2023/08/11 02:00:37;;;;;;;3.27;1.70;;;;;;;;;;5011940;28;20228;-88
2023/08/11 02:06:36;;;;;;;0.90;0.90;;;;;;;;;;5024773;28;20227;-88
2023/08/11 02:09:28;;;;;;;1.47;1.47;;;;;;;;;;5026329;28;20461;-87
2023/08/11 02:12:38;;;;;;;1.67;1.53;;;;;;;;;;5049352;28;20657;-88
2023/08/11 02:24:22;;;;;;;1.40;1.40;;;;;;;;;;5047436;28;20236;-88
2023/08/11 02:36:28;;;;;;;4.63;1.73;;;;;;;;;;5038742;28;20245;-86
2023/08/11 02:39:36;;;;;;;1.27;1.27;;;;;;;;;;5058266;28;20300;-87
2023/08/11 02:42:25;;;;;;;1.40;1.10;;;;;;;;;;5030128;28;20219;-88
2023/08/11 02:45:10;;;;;;;1.30;1.20;;;;;;;;;;5046158;28;20342;-87
2023/08/11 02:48:17;;;;;;;0.80;0.80;;;;;;;;;;5047248;28;20243;-87
2023/08/11 03:13:20;;;;;;;1.30;1.30;;;;;;;;;;5122451;28;20243;-87
2023/08/11 03:16:29;;;;;;;1.00;1.00;;;;;;;;;;5125516;28;20224;-86
2023/08/11 03:19:31;;;;;;;1.97;1.20;;;;;;;;;;5088056;28;20334;-87
2023/08/11 03:22:09;;;;;;;1.00;1.00;;;;;;;;;;5078684;28;20274;-88
2023/08/11 03:24:58;;;;;;;1.03;1.03;;;;;;;;;;5087992;28;20203;-88
2023/08/11 03:27:46;;;;;;;0.90;0.90;;;;;;;;;;5096348;28;20221;-87
2023/08/11 03:31:05;;;;;;;1.20;1.20;;;;;;;;;;5102487;28;20217;-87
2023/08/11 03:36:47;;;;;;;1.30;1.20;;;;;;;;;;5122045;28;20248;-88
2023/08/11 03:42:57;;;;;;;1.40;1.30;;;;;;;;;;5105783;28;20626;-86
2023/08/11 03:45:50;;;;;;;1.10;1.10;;;;;;;;;;5087530;28;20672;-86
2023/08/11 03:54:50;;;;;;;0.77;0.77;;;;;;;;;;5043183;28;20229;-87
2023/08/11 04:00:40;;;;;;;1.10;1.10;;;;;;;;;;5062108;28;20194;-87
2023/08/11 04:03:31;;;;;;;0.70;0.70;;;;;;;;;;5048984;28;20274;-87
2023/08/11 04:06:34;;;;;;;0.88;0.88;;;;;;;;;;5051132;28;20551;-87
2023/08/11 04:09:34;;;;;;;0.75;0.75;;;;;;;;;;5050371;28;20284;-87
2023/08/11 04:12:17;;;;;;;0.70;0.70;;;;;;;;;;5049196;28;20651;-89
2023/08/11 04:18:06;;;;;;;1.00;1.00;;;;;;;;;;4968018;28;20202;-88
2023/08/11 04:20:44;;;;;;;0.98;0.98;;;;;;;;;;4989644;28;20285;-89
2023/08/11 04:23:25;;;;;;;2.38;1.05;;;;;;;;;;5053442;28;20607;-88
2023/08/11 04:26:24;;;;;;;0.80;0.77;;;;;;;;;;5052259;28;20221;-88
2023/08/11 04:32:26;;;;;;;1.50;1.00;;;;;;;;;;5048894;28;20207;-88
2023/08/11 04:38:11;;;;;;;0.77;0.60;;;;;;;;;;5050224;28;20215;-88
2023/08/11 04:40:42;;;;;;;0.90;0.90;;;;;;;;;;5052653;28;20238;-87
2023/08/11 04:43:14;;;;;;;2.17;1.25;;;;;;;;;;5051707;28;20203;-88
2023/08/11 04:45:50;;;;;;;1.15;1.15;;;;;;;;;;5052450;28;20289;-88
2023/08/11 04:48:22;;;;;;;0.80;0.80;;;;;;;;;;5051268;28;20202;-88
2023/08/11 04:54:15;;;;;;;1.67;0.80;;;;;;;;;;5050963;28;20273;-88
2023/08/11 05:03:10;;;;;;;0.77;0.77;;;;;;;;;;5050821;28;20241;-88
2023/08/11 05:08:52;;;;;;;1.00;0.98;;;;;;;;;;5049912;28;20203;-89
2023/08/11 05:11:35;;;;;;;1.38;1.27;;;;;;;;;;5049144;28;20214;-89
2023/08/11 05:14:15;;;;;;;1.48;0.75;;;;;;;;;;5050973;28;20269;-88
2023/08/11 05:17:13;;;;;;;0.80;0.80;;;;;;;;;;5045429;28;20195;-88
2023/08/11 05:20:06;;;;;;;0.90;0.90;;;;;;;;;;5048449;28;20511;-88
2023/08/11 05:22:41;;;;;;;0.93;0.93;;;;;;;;;;5051364;28;20203;-87
2023/08/11 05:28:43;;;;;;;1.10;1.10;;;;;;;;;;4566826;27;14276927;-87
2023/08/11 05:31:27;;;;;;;0.88;0.88;;;;;;;;;;5089306;28;20205;-87
2023/08/11 05:34:23;;;;;;;0.80;0.80;;;;;;;;;;5085884;28;20691;-87
2023/08/11 05:37:13;;;;;;;1.00;1.00;;;;;;;;;;5077954;28;20545;-86
2023/08/11 05:40:10;;;;;;;1.15;1.08;;;;;;;;;;5068539;28;20224;-87
2023/08/11 05:43:06;;;;;;;1.08;1.08;;;;;;;;;;5066626;28;20209;-88
2023/08/11 05:48:57;;;;;;;1.10;1.10;;;;;;;;;;5065559;28;20219;-87
2023/08/11 05:51:54;;;;;;;4.00;1.40;;;;;;;;;;5067537;28;20212;-87
2023/08/11 05:55:05;;;;;;;1.15;1.15;;;;;;;;;;5066202;28;20232;-87
2023/08/11 05:57:56;;;;;;;1.95;1.13;;;;;;;;;;5067100;28;20261;-88
2023/08/11 06:00:48;;;;;;;1.10;1.10;;;;;;;;;;5065446;28;20210;-88
2023/08/11 06:03:29;;;;;;;1.02;1.02;;;;;;;;;;5064961;28;20694;-86
2023/08/11 06:11:50;;;;;;;1.20;1.20;;;;;;;;;;5063526;28;20647;-87
2023/08/11 06:14:20;;;;;;;1.95;1.00;;;;;;;;;;5067933;28;20221;-87
2023/08/11 06:16:53;;;;;;;2.90;1.10;;;;;;;;;;5066698;28;20208;-88
2023/08/11 06:19:31;;;;;;;1.33;1.00;;;;;;;;;;5066286;28;20541;-87
2023/08/11 06:22:28;;;;;;;1.35;1.25;;;;;;;;;;5066996;28;20217;-88
2023/08/11 06:28:17;;;;;;;1.00;1.00;;;;;;;;;;5018244;28;20282;-87
2023/08/11 06:31:14;;;;;;;1.45;1.38;;;;;;;;;;5071348;28;20202;-86
2023/08/11 06:33:48;;;;;;;0.90;0.90;;;;;;;;;;5075905;28;20226;-87
2023/08/11 06:36:25;;;;;;;1.00;1.00;;;;;;;;;;5064683;28;20194;-85
2023/08/11 06:42:35;;;;;;;1.10;1.10;;;;;;;;;;5048165;28;20276;-88
2023/08/11 06:45:35;;;;;;;1.33;1.33;;;;;;;;;;5052729;28;20199;-86
2023/08/11 06:51:40;;;;;;;1.10;1.10;;;;;;;;;;5047157;28;20283;-86
2023/08/11 06:57:30;;;;;;;2.13;1.80;;;;;;;;;;4566796;27;15332190;-87
2023/08/11 07:00:07;;;;;;;1.75;1.65;;;;;;;;;;5089418;28;20212;-87
2023/08/11 07:02:56;;;;;;;5.70;1.58;;;;;;;;;;5090736;28;20210;-87
2023/08/11 07:05:30;;;;;;;2.55;1.52;;;;;;;;;;5084995;28;20216;-85
2023/08/11 07:08:13;;;;;;;1.45;1.45;;;;;;;;;;5071390;28;20263;-87
2023/08/11 07:11:01;;;;;;;1.52;1.50;;;;;;;;;;5057966;28;20206;-86
2023/08/11 07:16:38;;;;;;;2.25;1.40;;;;;;;;;;5059403;28;20655;-86
2023/08/11 07:21:53;;;;;;;1.45;1.35;;;;;;;;;;5069777;28;20593;-84
2023/08/11 07:24:30;;;;;;;1.75;1.65;;;;;;;;;;5068252;28;20198;-86
2023/08/11 07:33:24;;;;;;;2.08;1.98;;;;;;;;;;5053005;28;20762;-86
2023/08/11 07:36:00;;;;;;;1.50;1.50;;;;;;;;;;5063640;28;20233;-86
2023/08/11 07:38:48;;;;;;;1.60;1.50;;;;;;;;;;5052606;22;20230;-86
2023/08/11 07:41:39;;;;;;;1.98;1.65;;;;;;;;;;5049711;28;20322;-86
2023/08/11 07:44:25;;;;;;;1.73;1.73;;;;;;;;;;5050254;28;20310;-86
2023/08/11 07:47:26;;;;;;;1.85;1.75;;;;;;;;;;5051554;28;20326;-86
2023/08/11 07:50:02;;;;;;;1.65;1.65;;;;;;;;;;5037808;28;20235;-85
2023/08/11 07:52:34;;;;;;;2.00;1.90;;;;;;;;;;5051011;28;20233;-87
2023/08/11 07:55:05;;;;;;;1.80;1.70;;;;;;;;;;5045757;28;20242;-86
2023/08/11 07:57:35;;;;;;;1.85;1.75;;;;;;;;;;5053942;28;20223;-86
2023/08/11 08:00:16;;;;;;;2.10;2.00;;;;;;;;;;5045548;28;20215;-86
2023/08/11 08:03:02;;;;;;;2.05;1.95;;;;;;;;;;5054140;28;20665;-88
2023/08/11 08:05:33;;;;;;;2.22;1.92;;;;;;;;;;5053413;28;20235;-86
2023/08/11 08:08:33;;;;;;;1.90;1.80;;;;;;;;;;5042829;28;20307;-86
2023/08/11 08:11:03;;;;;;;2.13;1.38;;;;;;;;;;5037485;28;20220;-87
2023/08/11 08:16:27;;;;;;;1.50;1.50;;;;;;;;;;5039236;28;20258;-88
2023/08/11 08:19:01;;;;;;;1.35;1.35;;;;;;;;;;5034098;28;20229;-86
2023/08/11 08:21:34;;;;;;;1.48;1.38;;;;;;;;;;5039693;28;20220;-87
2023/08/11 08:24:12;;;;;;;1.42;1.42;;;;;;;;;;5032728;28;20220;-86
2023/08/11 13:02:24;;;;;;;1.42;1.38;;;;;;;;;;4994396;28;20236;-88
2023/08/11 14:09:31;;;;;;;1.45;1.42;;;;;;;;;;5291261;23;20730;-87
2023/08/11 14:12:03;;;;;;;1.10;1.10;;;;;;;;;;4991679;28;20271;-87
2023/08/11 14:14:31;;;;;;;0.80;0.80;;;;;;;;;;4991291;28;20253;-87
2023/08/11 14:17:01;;;;;;;0.93;0.93;;;;;;;;;;4999404;28;20267;-84
2023/08/11 14:19:36;;;;;;;0.88;0.88;;;;;;;;;;5000151;28;20222;-85
2023/08/11 14:22:04;;;;;;;1.17;1.10;;;;;;;;;;4999160;28;20268;-85
2023/08/11 14:24:34;;;;;;;1.20;1.20;;;;;;;;;;4998648;28;20225;-85
2023/08/11 14:27:08;;;;;;;0.95;0.95;;;;;;;;;;4994098;28;20234;-85
2023/08/11 14:29:38;;;;;;;1.70;1.00;;;;;;;;;;4999673;28;20237;-86
2023/08/11 14:32:08;;;;;;;1.10;1.10;;;;;;;;;;4997284;28;20245;-85
2023/08/11 14:34:38;;;;;;;0.90;0.90;;;;;;;;;;4998702;28;20610;-85
2023/08/11 14:37:06;;;;;;;1.20;1.20;;;;;;;;;;4995105;28;20241;-85
2023/08/11 14:39:36;;;;;;;1.58;1.52;;;;;;;;;;5001089;28;20234;-84
2023/08/11 14:42:03;;;;;;;1.25;1.10;;;;;;;;;;4998536;28;20229;-85
2023/08/11 14:44:31;;;;;;;2.67;1.33;;;;;;;;;;5000429;28;20748;-85
2023/08/11 14:46:59;;;;;;;0.75;0.75;;;;;;;;;;4999753;28;20233;-86
2023/08/11 14:49:27;;;;;;;0.65;0.65;;;;;;;;;;4999210;28;20232;-84
2023/08/11 14:52:00;;;;;;;0.77;0.77;;;;;;;;;;4998273;28;20303;-85
2023/08/11 14:54:29;;;;;;;1.35;0.90;;;;;;;;;;4995222;28;20273;-84
2023/08/11 14:56:58;;;;;;;1.15;1.13;;;;;;;;;;4999610;28;20256;-84
2023/08/11 14:59:26;;;;;;;0.93;0.93;;;;;;;;;;4994180;28;20229;-84
2023/08/11 15:01:55;;;;;;;1.10;1.10;;;;;;;;;;4998684;28;20233;-85
2023/08/11 15:04:24;;;;;;;0.82;0.82;;;;;;;;;;4996480;28;20829;-85
2023/08/11 15:06:53;;;;;;;1.48;0.82;;;;;;;;;;5001440;28;20225;-85
2023/08/11 15:09:25;;;;;;;1.20;1.10;;;;;;;;;;4987460;28;20265;-85
2023/08/11 15:11:54;;;;;;;1.00;1.00;;;;;;;;;;4981468;28;20246;-85
2023/08/11 15:14:23;;;;;;;1.33;1.00;;;;;;;;;;4979547;28;20336;-85
2023/08/11 15:16:52;;;;;;;2.58;0.90;;;;;;;;;;4980760;28;20241;-86
2023/08/11 15:19:22;;;;;;;0.85;0.85;;;;;;;;;;4977390;28;20690;-84
2023/08/11 15:21:51;;;;;;;0.90;0.90;;;;;;;;;;4982046;28;20622;-85
2023/08/11 15:24:31;;;;;;;1.23;0.80;;;;;;;;;;4970890;28;20273;-85
2023/08/11 15:27:00;;;;;;;0.68;0.68;;;;;;;;;;4960327;29;20226;-85
2023/08/11 15:29:31;;;;;;;0.90;0.90;;;;;;;;;;4957059;28;20262;-85
2023/08/11 15:32:06;;;;;;;0.80;0.80;;;;;;;;;;4959904;29;20342;-86
2023/08/11 15:34:36;;;;;;;0.70;0.70;;;;;;;;;;4954673;28;20237;-85
2023/08/11 15:37:07;;;;;;;0.80;0.80;;;;;;;;;;4958712;29;20244;-84
2023/08/11 15:39:36;;;;;;;0.85;0.85;;;;;;;;;;4953901;28;20242;-85
2023/08/11 15:42:04;;;;;;;1.05;1.05;;;;;;;;;;4957893;29;20237;-87
2023/08/11 15:44:36;;;;;;;3.55;1.30;;;;;;;;;;4956417;28;20227;-85
2023/08/11 15:47:05;;;;;;;1.08;1.08;;;;;;;;;;4956104;29;20226;-84
2023/08/11 15:49:34;;;;;;;1.00;1.00;;;;;;;;;;4955033;28;20286;-85
2023/08/11 15:52:02;;;;;;;1.10;1.10;;;;;;;;;;4959066;29;20246;-87
2023/08/11 15:54:29;;;;;;;1.20;1.20;;;;;;;;;;4951019;28;20231;-84
2023/08/11 15:56:56;;;;;;;1.00;0.90;;;;;;;;;;4958284;29;20227;-85
2023/08/11 15:59:26;;;;;;;1.17;1.02;;;;;;;;;;4956481;28;20282;-88
2023/08/11 16:01:58;;;;;;;0.90;0.90;;;;;;;;;;4958026;29;20309;-86
2023/08/11 16:04:26;;;;;;;1.48;1.30;;;;;;;;;;4958242;29;20231;-84
2023/08/11 16:06:55;;;;;;;0.98;0.98;;;;;;;;;;4960486;29;20230;-85
2023/08/11 16:09:22;;;;;;;1.00;1.00;;;;;;;;;;4962327;28;20242;-87
2023/08/11 16:11:53;;;;;;;1.13;1.08;;;;;;;;;;4977665;28;20711;-85
2023/08/11 16:14:24;;;;;;;1.02;1.02;;;;;;;;;;4978631;28;20710;-86
2023/08/11 16:16:53;;;;;;;1.05;1.05;;;;;;;;;;4977061;28;20312;-86
2023/08/11 16:19:24;;;;;;;0.90;0.90;;;;;;;;;;4976045;28;20225;-85
2023/08/11 16:21:53;;;;;;;1.90;1.50;;;;;;;;;;4976532;28;20284;-86
2023/08/11 16:24:22;;;;;;;1.13;1.13;;;;;;;;;;4995962;28;20311;-85
2023/08/11 16:26:51;;;;;;;2.85;1.23;;;;;;;;;;4993853;28;20229;-84
2023/08/11 16:29:19;;;;;;;1.60;1.50;;;;;;;;;;4994952;28;20707;-86
2023/08/11 16:31:50;;;;;;;1.38;1.38;;;;;;;;;;4995086;28;20263;-84
2023/08/11 16:34:20;;;;;;;1.50;1.00;;;;;;;;;;4992871;28;20298;-85
2023/08/11 16:36:49;;;;;;;2.55;1.45;;;;;;;;;;4995798;28;20291;-86
2023/08/11 16:39:19;;;;;;;1.50;1.50;;;;;;;;;;5000049;28;20235;-83
2023/08/11 16:41:48;;;;;;;1.55;1.45;;;;;;;;;;4994246;28;20222;-87
2023/08/11 16:44:17;;;;;;;1.08;1.08;;;;;;;;;;4995053;28;20235;-86
2023/08/11 16:46:46;;;;;;;1.08;1.08;;;;;;;;;;4993612;28;20263;-86
2023/08/11 16:49:15;;;;;;;2.17;1.30;;;;;;;;;;4999449;28;20287;-86
2023/08/11 16:51:46;;;;;;;1.25;1.20;;;;;;;;;;5003365;28;20367;-87
2023/08/11 16:54:16;;;;;;;2.15;1.10;;;;;;;;;;5001671;28;20244;-84
2023/08/11 16:56:47;;;;;;;1.10;1.10;;;;;;;;;;4989601;28;20320;-85
2023/08/11 16:59:18;;;;;;;1.48;1.38;;;;;;;;;;4996257;28;20235;-85
2023/08/11 17:01:46;;;;;;;1.13;1.13;;;;;;;;;;4996887;28;20244;-84
2023/08/11 17:04:15;;;;;;;1.42;1.33;;;;;;;;;;4995590;28;20659;-85
2023/08/11 17:06:45;;;;;;;1.73;1.63;;;;;;;;;;4990858;28;20303;-84
2023/08/11 17:09:14;;;;;;;2.00;1.65;;;;;;;;;;4998659;28;20252;-85
2023/08/11 17:11:43;;;;;;;2.00;1.83;;;;;;;;;;4995857;28;20241;-85
2023/08/11 17:14:35;;;;;;;1.48;1.48;;;;;;;;;;4994363;28;20221;-86
2023/08/11 17:17:05;;;;;;;1.23;1.23;;;;;;;;;;4990737;28;20313;-85
2023/08/11 17:19:35;;;;;;;0.82;0.82;;;;;;;;;;4998825;28;20244;-84
2023/08/11 17:22:02;;;;;;;1.23;1.13;;;;;;;;;;4990736;28;20241;-84
2023/08/11 17:24:31;;;;;;;1.30;1.30;;;;;;;;;;4994786;28;20831;-84
2023/08/11 17:27:01;;;;;;;2.33;2.03;;;;;;;;;;4991261;28;20225;-84
2023/08/11 17:29:30;;;;;;;1.58;1.48;;;;;;;;;;4993170;28;20232;-85
2023/08/11 17:32:01;;;;;;;4.18;2.50;;;;;;;;;;4993477;28;20233;-87
2023/08/11 17:34:29;;;;;;;1.77;1.75;;;;;;;;;;4997942;28;20610;-84
2023/08/11 17:37:04;;;;;;;1.52;1.50;;;;;;;;;;4995167;28;20228;-86
2023/08/11 17:39:34;;;;;;;2.03;1.92;;;;;;;;;;4998732;28;20231;-86
2023/08/11 17:42:04;;;;;;;1.85;1.75;;;;;;;;;;4998652;28;20233;-85
2023/08/11 17:44:35;;;;;;;25.90;11.88;;;;;;;;;;4997506;28;20244;-85
2023/08/11 17:47:02;;;;;;;5.93;1.85;;;;;;;;;;4994737;28;20221;-84
2023/08/11 17:49:31;;;;;;;1.30;1.30;;;;;;;;;;5000696;28;20233;-85
2023/08/11 17:51:59;;;;;;;1.38;1.35;;;;;;;;;;4996784;28;20244;-86
2023/08/11 17:54:27;;;;;;;2.10;2.00;;;;;;;;;;4998244;28;20225;-86
2023/08/11 17:56:56;;;;;;;1.63;1.25;;;;;;;;;;4998132;28;20316;-85
2023/08/11 17:59:26;;;;;;;4.75;1.42;;;;;;;;;;5000929;28;20220;-84
2023/08/11 18:01:55;;;;;;;3.10;1.95;;;;;;;;;;5018801;28;20312;-84
2023/08/11 18:04:23;;;;;;;2.33;2.15;;;;;;;;;;5012555;28;20263;-87
2023/08/11 18:07:07;;;;;;;2.90;2.70;;;;;;;;;;5017326;28;20235;-86
2023/08/11 18:09:36;;;;;;;2.83;2.63;;;;;;;;;;5009983;28;20275;-85
2023/08/11 18:12:03;;;;;;;1.73;1.63;;;;;;;;;;5005907;28;20241;-87
2023/08/11 18:14:57;;;;;;;2.10;2.00;;;;;;;;;;5004452;28;20260;-85
2023/08/11 18:17:25;;;;;;;1.92;1.83;;;;;;;;;;4979186;28;20321;-85
2023/08/11 18:19:54;;;;;;;2.00;1.90;;;;;;;;;;4970136;28;20291;-86
2023/08/11 18:22:23;;;;;;;1.50;1.40;;;;;;;;;;4978620;28;20749;-85
2023/08/11 18:24:51;;;;;;;2.63;2.42;;;;;;;;;;4978493;28;20245;-85
2023/08/11 18:27:26;;;;;;;1.60;1.50;;;;;;;;;;4977227;28;20222;-86
2023/08/11 18:30:01;;;;;;;1.85;1.75;;;;;;;;;;4976473;28;20312;-85
2023/08/11 18:32:31;;;;;;;2.78;1.55;;;;;;;;;;4980504;28;20245;-85
2023/08/11 18:35:00;;;;;;;2.33;2.13;;;;;;;;;;4977603;28;20300;-84
2023/08/11 18:37:32;;;;;;;2.40;2.22;;;;;;;;;;4978133;28;20214;-84
2023/08/11 18:40:00;;;;;;;2.70;1.75;;;;;;;;;;4975093;28;20242;-84
2023/08/11 18:42:29;;;;;;;1.90;1.83;;;;;;;;;;4977431;28;20218;-84
2023/08/11 18:45:01;;;;;;;2.15;1.77;;;;;;;;;;4987491;28;20225;-85
2023/08/11 18:47:30;;;;;;;1.63;1.52;;;;;;;;;;4981527;28;20257;-85
2023/08/11 18:50:00;;;;;;;1.90;1.80;;;;;;;;;;4976245;28;20372;-86
2023/08/11 18:52:42;;;;;;;1.63;1.52;;;;;;;;;;4978304;28;20258;-84
2023/08/11 18:55:18;;;;;;;2.10;2.00;;;;;;;;;;4986847;28;20243;-85
2023/08/11 18:57:46;;;;;;;2.40;1.77;;;;;;;;;;4989216;28;20290;-84
2023/08/11 19:00:16;;;;;;;2.83;1.85;;;;;;;;;;4978872;28;20618;-84
2023/08/11 19:02:45;;;;;;;1.77;1.67;;;;;;;;;;4991230;28;20218;-86
2023/08/11 19:05:14;;;;;;;1.85;1.75;;;;;;;;;;4993948;28;20233;-85
2023/08/11 19:07:43;;;;;;;1.88;1.77;;;;;;;;;;4996505;28;20232;-85
2023/08/11 19:10:11;;;;;;;2.00;1.90;;;;;;;;;;4987949;28;20237;-85
2023/08/11 19:12:40;;;;;;;1.98;1.88;;;;;;;;;;4983212;28;20339;-85
2023/08/11 19:15:08;;;;;;;1.70;1.70;;;;;;;;;;4978443;28;20230;-85
2023/08/11 19:17:39;;;;;;;1.50;1.40;;;;;;;;;;4989691;28;20776;-85
2023/08/11 19:20:06;;;;;;;1.60;1.50;;;;;;;;;;4970859;28;20230;-85
2023/08/11 19:22:35;;;;;;;1.77;1.67;;;;;;;;;;4977369;28;20226;-86
2023/08/11 19:25:04;;;;;;;2.03;1.92;;;;;;;;;;4964892;28;20266;-84
2023/08/11 19:27:31;;;;;;;1.30;1.23;;;;;;;;;;4960110;29;20231;-85
2023/08/11 19:30:01;;;;;;;1.92;1.77;;;;;;;;;;4960629;28;20230;-84
2023/08/11 19:32:32;;;;;;;1.35;1.35;;;;;;;;;;4960054;29;20238;-85
2023/08/11 19:35:03;;;;;;;1.42;1.30;;;;;;;;;;4958219;28;20716;-86
2023/08/11 19:37:32;;;;;;;1.67;1.58;;;;;;;;;;4970884;28;20217;-84
2023/08/11 19:40:00;;;;;;;1.95;1.85;;;;;;;;;;4972121;28;20274;-84
2023/08/11 19:42:31;;;;;;;1.60;1.60;;;;;;;;;;4976602;28;20690;-83
2023/08/11 19:44:59;;;;;;;1.40;1.40;;;;;;;;;;4979122;28;20726;-84
2023/08/11 19:47:28;;;;;;;1.60;1.50;;;;;;;;;;4978231;28;20238;-86
2023/08/11 19:49:59;;;;;;;1.50;1.50;;;;;;;;;;4977653;28;20226;-86
2023/08/11 19:52:34;;;;;;;2.08;1.98;;;;;;;;;;4972689;28;20226;-86
2023/08/11 19:55:04;;;;;;;1.48;1.40;;;;;;;;;;4970432;28;20252;-87
2023/08/11 19:57:35;;;;;;;2.05;1.95;;;;;;;;;;4977388;28;20226;-86
2023/08/11 20:00:04;;;;;;;1.60;1.60;;;;;;;;;;4981845;28;20317;-86
2023/08/11 20:02:32;;;;;;;3.72;3.45;;;;;;;;;;4957731;28;20237;-85
2023/08/11 20:05:02;;;;;;;2.25;2.15;;;;;;;;;;4969696;28;20626;-85
2023/08/11 20:07:31;;;;;;;1.92;1.83;;;;;;;;;;4967004;28;20592;-85
2023/08/11 20:09:58;;;;;;;1.95;1.92;;;;;;;;;;4972831;28;20681;-85
2023/08/11 20:12:25;;;;;;;1.77;1.67;;;;;;;;;;4967760;28;20295;-84
2023/08/11 20:14:55;;;;;;;2.10;2.00;;;;;;;;;;4971751;28;20289;-85
2023/08/11 20:17:22;;;;;;;2.30;2.10;;;;;;;;;;4969234;28;20233;-86
2023/08/11 20:19:50;;;;;;;1.83;1.80;;;;;;;;;;4973357;28;20229;-85
2023/08/11 20:22:18;;;;;;;1.95;1.60;;;;;;;;;;4971903;28;20298;-84
2023/08/11 20:24:49;;;;;;;2.13;2.03;;;;;;;;;;4971779;28;20277;-85
2023/08/11 20:27:19;;;;;;;1.73;1.63;;;;;;;;;;4970361;28;20301;-85
2023/08/11 20:29:48;;;;;;;1.80;1.80;;;;;;;;;;4972293;28;20603;-87
2023/08/11 20:32:20;;;;;;;1.63;1.63;;;;;;;;;;4967515;28;20293;-85
2023/08/11 20:34:47;;;;;;;2.42;2.22;;;;;;;;;;4969017;28;20303;-85
2023/08/11 20:37:16;;;;;;;1.42;1.40;;;;;;;;;;4964453;28;20248;-85
2023/08/11 20:39:50;;;;;;;2.20;2.05;;;;;;;;;;4969010;28;20308;-87
2023/08/11 20:42:19;;;;;;;1.90;1.80;;;;;;;;;;4966219;28;20682;-84
2023/08/11 20:44:51;;;;;;;1.58;1.58;;;;;;;;;;4969432;28;20243;-85
2023/08/11 20:47:18;;;;;;;1.80;1.70;;;;;;;;;;4968603;28;20290;-85
2023/08/11 20:49:47;;;;;;;2.08;1.77;;;;;;;;;;4968658;28;20233;-85
2023/08/11 20:52:17;;;;;;;1.77;1.67;;;;;;;;;;4966403;28;20228;-84
2023/08/11 20:54:46;;;;;;;2.13;1.92;;;;;;;;;;4964931;28;20236;-84
2023/08/11 20:57:15;;;;;;;1.92;1.83;;;;;;;;;;4966596;28;20312;-84
2023/08/11 20:59:45;;;;;;;2.47;2.08;;;;;;;;;;4970973;28;20637;-83
2023/08/11 21:02:15;;;;;;;1.80;1.70;;;;;;;;;;4966754;28;20225;-84
2023/08/11 21:04:43;;;;;;;2.03;1.92;;;;;;;;;;4953868;28;20221;-86
2023/08/11 21:07:12;;;;;;;1.77;1.67;;;;;;;;;;4969054;28;20222;-85
2023/08/11 21:09:41;;;;;;;2.20;2.10;;;;;;;;;;4984911;28;20224;-83
2023/08/11 21:12:09;;;;;;;2.08;1.98;;;;;;;;;;4975159;28;20671;-83
2023/08/11 21:14:38;;;;;;;1.80;1.70;;;;;;;;;;4968457;28;20237;-84
2023/08/11 21:17:06;;;;;;;2.03;1.85;;;;;;;;;;4968543;28;20231;-84
2023/08/11 21:19:36;;;;;;;2.20;2.10;;;;;;;;;;4966876;28;20229;-84
2023/08/11 21:22:04;;;;;;;1.85;1.73;;;;;;;;;;4968212;28;20231;-84
2023/08/11 21:24:32;;;;;;;1.92;1.83;;;;;;;;;;4962492;28;20690;-84
2023/08/11 21:27:02;;;;;;;1.98;1.90;;;;;;;;;;4966650;28;20314;-83
2023/08/11 21:29:32;;;;;;;2.10;2.00;;;;;;;;;;4964282;28;20230;-84
2023/08/11 21:32:04;;;;;;;1.60;1.60;;;;;;;;;;4968556;28;20725;-85
2023/08/11 21:34:33;;;;;;;1.52;1.52;;;;;;;;;;4965505;28;20252;-83
2023/08/11 21:37:17;;;;;;;1.90;1.80;;;;;;;;;;4970226;28;20683;-84
2023/08/11 21:39:46;;;;;;;1.48;1.48;;;;;;;;;;4969690;28;20264;-83
2023/08/11 21:42:14;;;;;;;1.58;1.58;;;;;;;;;;4968824;28;20238;-85
2023/08/11 21:44:41;;;;;;;2.15;2.05;;;;;;;;;;4969818;28;20210;-83
2023/08/11 21:47:09;;;;;;;1.85;1.75;;;;;;;;;;4969574;28;20331;-83
2023/08/11 21:49:38;;;;;;;4.10;1.77;;;;;;;;;;4968943;28;20209;-84
2023/08/11 21:52:08;;;;;;;1.88;1.77;;;;;;;;;;4969652;28;20204;-85
2023/08/11 21:54:36;;;;;;;1.75;1.70;;;;;;;;;;4969431;28;20223;-84
2023/08/11 21:57:03;;;;;;;1.65;1.58;;;;;;;;;;4968048;28;20295;-83
2023/08/11 21:59:34;;;;;;;1.73;1.63;;;;;;;;;;4970084;28;20205;-84
2023/08/11 22:02:01;;;;;;;2.05;1.88;;;;;;;;;;4969394;28;20256;-84
2023/08/11 22:04:29;;;;;;;2.08;1.92;;;;;;;;;;4968796;28;20664;-85
2023/08/11 22:06:58;;;;;;;1.85;1.75;;;;;;;;;;4970020;28;20573;-85
2023/08/11 22:09:41;;;;;;;2.20;2.00;;;;;;;;;;4977344;28;20518;-85
2023/08/11 22:15:50;;;;;;;1.85;1.77;;;;;;;;;;4963320;28;20232;-82
2023/08/11 22:18:23;;;;;;;3.70;1.40;;;;;;;;;;4874176;29;20219;-84
2023/08/11 22:21:24;;;;;;;6.07;1.67;;;;;;;;;;4888779;29;20227;-87
2023/08/11 22:24:19;;;;;;;4.97;1.83;;;;;;;;;;4836294;29;20754;-84
2023/08/11 22:27:05;;;;;;;2.47;1.73;;;;;;;;;;4895376;29;20637;-84
2023/08/11 22:29:57;;;;;;;1.77;1.77;;;;;;;;;;4941877;28;20700;-84
2023/08/11 22:32:45;;;;;;;2.20;2.10;;;;;;;;;;4989361;28;20291;-85
2023/08/11 22:35:27;;;;;;;1.63;1.52;;;;;;;;;;4983369;28;20229;-85
2023/08/11 22:41:45;;;;;;;2.30;1.80;;;;;;;;;;4956982;28;20242;-85
2023/08/11 22:50:57;;;;;;;;;;;;;;;;;;;;;
2023/08/11 22:53:37;;;;;;;;;;;;;;;;;;;;;
2023/08/11 22:59:46;;;;;;;1.88;1.77;;;;;;;;;;4876897;29;20202;-87
2023/08/11 23:08:28;;;;;;;1.42;1.38;;;;;;;;;;4970653;28;20196;-85
2023/08/11 23:11:21;;;;;;;7.90;1.92;;;;;;;;;;4878824;29;20208;-84
2023/08/11 23:16:43;;;;;;;1.80;1.70;;;;;;;;;;4920317;29;20223;-82
2023/08/11 23:19:10;;;;;;;1.42;1.42;;;;;;;;;;4958630;28;20213;-83
2023/08/11 23:21:40;;;;;;;2.60;1.63;;;;;;;;;;4954447;28;20205;-83
2023/08/11 23:24:10;;;;;;;2.38;1.73;;;;;;;;;;4949684;29;20252;-84
2023/08/11 23:26:38;;;;;;;3.58;1.58;;;;;;;;;;4938328;29;20215;-84
2023/08/11 23:29:07;;;;;;;2.00;1.90;;;;;;;;;;4946643;28;20212;-84
2023/08/11 23:31:35;;;;;;;2.22;1.95;;;;;;;;;;4950493;29;20208;-84
2023/08/11 23:34:04;;;;;;;2.25;1.70;;;;;;;;;;4950293;29;20649;-82
2023/08/11 23:36:33;;;;;;;1.83;1.73;;;;;;;;;;4950560;29;20628;-83
2023/08/11 23:39:02;;;;;;;2.10;1.90;;;;;;;;;;4950854;29;20216;-83
2023/08/11 23:41:33;;;;;;;2.08;1.73;;;;;;;;;;4952430;28;20319;-82
2023/08/11 23:44:01;;;;;;;1.35;1.25;;;;;;;;;;4952773;29;20211;-83
2023/08/11 23:46:29;;;;;;;1.73;1.65;;;;;;;;;;4951579;29;20219;-83
2023/08/11 23:48:59;;;;;;;2.90;1.80;;;;;;;;;;4949846;28;20247;-84
2023/08/11 23:51:27;;;;;;;1.80;1.70;;;;;;;;;;4952263;29;20283;-83
2023/08/11 23:53:56;;;;;;;1.83;1.77;;;;;;;;;;4951133;29;20305;-82
2023/08/11 23:56:26;;;;;;;1.80;1.73;;;;;;;;;;4951658;29;20216;-83
2023/08/11 23:58:54;;;;;;;1.40;1.38;;;;;;;;;;4951866;29;20202;-83
